sensor_id;sensor_type;location;lat;lon;timestamp;P1;durP1;ratioP1;P2;durP2;ratioP2
65753;SDS011;52488;47.502;18.940;2022-11-20T00:00:04;18.52;;;7.72;;
65753;SDS011;52488;47.502;18.940;2022-11-20T00:01:08;16.52;;;7.50;;
65753;SDS011;52488;47.502;18.940;2022-11-20T00:02:14;20.33;;;8.25;;
65753;SDS011;52488;47.502;18.940;2022-11-20T00:03:17;17.12;;;8.43;;
65753;SDS011;52488;47.502;18.940;2022-11-20T00:04:20;17.12;;;7.82;;
65753;SDS011;52488;47.502;18.940;2022-11-20T00:05:23;12.60;;;6.22;;
65753;SDS011;52488;47.502;18.940;2022-11-20T00:06:26;15.65;;;7.50;;
65753;SDS011;52488;47.502;18.940;2022-11-20T00:07:30;17.27;;;8.02;;
65753;SDS011;52488;47.502;18.940;2022-11-20T00:08:33;15.32;;;6.75;;
65753;SDS011;52488;47.502;18.940;2022-11-20T00:09:36;18.98;;;8.32;;
65753;SDS011;52488;47.502;18.940;2022-11-20T00:10:39;16.33;;;7.18;;
65753;SDS011;52488;47.502;18.940;2022-11-20T00:11:42;14.82;;;6.68;;
65753;SDS011;52488;47.502;18.940;2022-11-20T00:12:45;14.80;;;6.90;;
65753;SDS011;52488;47.502;18.940;2022-11-20T00:13:48;15.48;;;7.25;;
65753;SDS011;52488;47.502;18.940;2022-11-20T00:14:54;13.75;;;7.07;;
65753;SDS011;52488;47.502;18.940;2022-11-20T00:15:57;14.90;;;7.03;;
65753;SDS011;52488;47.502;18.940;2022-11-20T00:17:01;16.20;;;7.72;;
65753;SDS011;52488;47.502;18.940;2022-11-20T00:18:03;19.10;;;7.28;;
65753;SDS011;52488;47.502;18.940;2022-11-20T00:19:06;17.33;;;6.80;;
65753;SDS011;52488;47.502;18.940;2022-11-20T00:20:09;12.75;;;6.12;;
65753;SDS011;52488;47.502;18.940;2022-11-20T00:21:23;14.57;;;6.22;;
65753;SDS011;52488;47.502;18.940;2022-11-20T00:22:27;15.88;;;6.82;;
65753;SDS011;52488;47.502;18.940;2022-11-20T00:23:30;16.35;;;7.25;;
65753;SDS011;52488;47.502;18.940;2022-11-20T00:24:33;17.08;;;7.40;;
65753;SDS011;52488;47.502;18.940;2022-11-20T00:25:42;14.45;;;6.62;;
65753;SDS011;52488;47.502;18.940;2022-11-20T00:26:45;17.95;;;6.90;;
65753;SDS011;52488;47.502;18.940;2022-11-20T00:27:48;16.05;;;7.30;;
65753;SDS011;52488;47.502;18.940;2022-11-20T00:28:54;15.73;;;7.53;;
65753;SDS011;52488;47.502;18.940;2022-11-20T00:30:01;15.60;;;6.82;;
65753;SDS011;52488;47.502;18.940;2022-11-20T00:31:05;15.85;;;7.05;;
65753;SDS011;52488;47.502;18.940;2022-11-20T00:32:09;13.80;;;6.93;;
65753;SDS011;52488;47.502;18.940;2022-11-20T00:33:12;14.85;;;7.05;;
65753;SDS011;52488;47.502;18.940;2022-11-20T00:34:15;13.90;;;6.95;;
65753;SDS011;52488;47.502;18.940;2022-11-20T00:35:18;12.25;;;6.25;;
65753;SDS011;52488;47.502;18.940;2022-11-20T00:36:21;15.13;;;7.12;;
65753;SDS011;52488;47.502;18.940;2022-11-20T00:37:25;14.13;;;6.70;;
65753;SDS011;52488;47.502;18.940;2022-11-20T00:38:28;16.45;;;6.70;;
65753;SDS011;52488;47.502;18.940;2022-11-20T00:39:31;14.05;;;5.87;;
65753;SDS011;52488;47.502;18.940;2022-11-20T00:40:38;13.15;;;6.57;;
65753;SDS011;52488;47.502;18.940;2022-11-20T00:41:40;15.68;;;6.53;;
65753;SDS011;52488;47.502;18.940;2022-11-20T00:42:43;13.70;;;6.65;;
65753;SDS011;52488;47.502;18.940;2022-11-20T00:43:46;17.58;;;7.32;;
65753;SDS011;52488;47.502;18.940;2022-11-20T00:44:48;14.87;;;6.07;;
65753;SDS011;52488;47.502;18.940;2022-11-20T00:45:55;15.35;;;7.05;;
65753;SDS011;52488;47.502;18.940;2022-11-20T00:47:17;14.90;;;6.43;;
65753;SDS011;52488;47.502;18.940;2022-11-20T00:48:20;14.32;;;6.53;;
65753;SDS011;52488;47.502;18.940;2022-11-20T00:49:23;12.85;;;6.68;;
65753;SDS011;52488;47.502;18.940;2022-11-20T00:50:26;16.00;;;6.78;;
65753;SDS011;52488;47.502;18.940;2022-11-20T00:51:28;12.27;;;6.12;;
65753;SDS011;52488;47.502;18.940;2022-11-20T00:52:31;15.70;;;6.62;;
65753;SDS011;52488;47.502;18.940;2022-11-20T00:53:34;13.55;;;5.70;;
65753;SDS011;52488;47.502;18.940;2022-11-20T00:54:36;12.37;;;6.12;;
65753;SDS011;52488;47.502;18.940;2022-11-20T00:55:39;13.25;;;6.30;;
65753;SDS011;52488;47.502;18.940;2022-11-20T00:56:42;11.82;;;5.72;;
65753;SDS011;52488;47.502;18.940;2022-11-20T00:57:44;15.23;;;6.60;;
65753;SDS011;52488;47.502;18.940;2022-11-20T00:58:47;13.13;;;6.28;;
65753;SDS011;52488;47.502;18.940;2022-11-20T00:59:51;11.50;;;5.32;;
65753;SDS011;52488;47.502;18.940;2022-11-20T01:00:53;12.88;;;5.90;;
65753;SDS011;52488;47.502;18.940;2022-11-20T01:02:03;11.18;;;6.25;;
65753;SDS011;52488;47.502;18.940;2022-11-20T01:03:06;13.30;;;6.50;;
65753;SDS011;52488;47.502;18.940;2022-11-20T01:04:08;15.75;;;6.53;;
65753;SDS011;52488;47.502;18.940;2022-11-20T01:05:11;15.25;;;5.90;;
65753;SDS011;52488;47.502;18.940;2022-11-20T01:06:21;14.52;;;6.20;;
65753;SDS011;52488;47.502;18.940;2022-11-20T01:07:26;13.15;;;5.70;;
65753;SDS011;52488;47.502;18.940;2022-11-20T01:08:29;15.70;;;5.95;;
65753;SDS011;52488;47.502;18.940;2022-11-20T01:09:33;12.30;;;5.57;;
65753;SDS011;52488;47.502;18.940;2022-11-20T01:10:36;13.23;;;6.22;;
65753;SDS011;52488;47.502;18.940;2022-11-20T01:11:42;12.73;;;6.07;;
65753;SDS011;52488;47.502;18.940;2022-11-20T01:12:46;12.93;;;6.32;;
65753;SDS011;52488;47.502;18.940;2022-11-20T01:14:11;13.18;;;6.35;;
65753;SDS011;52488;47.502;18.940;2022-11-20T01:15:15;11.23;;;5.60;;
65753;SDS011;52488;47.502;18.940;2022-11-20T01:16:19;12.10;;;5.82;;
65753;SDS011;52488;47.502;18.940;2022-11-20T01:17:24;10.50;;;5.70;;
65753;SDS011;52488;47.502;18.940;2022-11-20T01:18:27;13.40;;;6.10;;
65753;SDS011;52488;47.502;18.940;2022-11-20T01:19:30;14.27;;;6.43;;
65753;SDS011;52488;47.502;18.940;2022-11-20T01:20:35;15.20;;;6.55;;
65753;SDS011;52488;47.502;18.940;2022-11-20T01:21:40;10.80;;;5.82;;
65753;SDS011;52488;47.502;18.940;2022-11-20T01:22:44;13.35;;;6.43;;
65753;SDS011;52488;47.502;18.940;2022-11-20T01:23:47;16.08;;;6.93;;
65753;SDS011;52488;47.502;18.940;2022-11-20T01:24:50;13.77;;;6.35;;
65753;SDS011;52488;47.502;18.940;2022-11-20T01:25:53;11.70;;;5.50;;
65753;SDS011;52488;47.502;18.940;2022-11-20T01:26:56;14.48;;;6.45;;
65753;SDS011;52488;47.502;18.940;2022-11-20T01:27:58;13.02;;;6.25;;
65753;SDS011;52488;47.502;18.940;2022-11-20T01:29:01;15.75;;;6.90;;
65753;SDS011;52488;47.502;18.940;2022-11-20T01:30:05;12.25;;;5.85;;
65753;SDS011;52488;47.502;18.940;2022-11-20T01:32:21;15.85;;;6.53;;
65753;SDS011;52488;47.502;18.940;2022-11-20T01:33:24;14.40;;;6.65;;
65753;SDS011;52488;47.502;18.940;2022-11-20T01:34:27;16.87;;;6.78;;
65753;SDS011;52488;47.502;18.940;2022-11-20T01:35:30;19.12;;;6.70;;
65753;SDS011;52488;47.502;18.940;2022-11-20T01:36:33;12.60;;;6.25;;
65753;SDS011;52488;47.502;18.940;2022-11-20T01:37:38;15.13;;;7.10;;
65753;SDS011;52488;47.502;18.940;2022-11-20T01:38:41;16.75;;;7.05;;
65753;SDS011;52488;47.502;18.940;2022-11-20T01:39:43;18.02;;;8.40;;
65753;SDS011;52488;47.502;18.940;2022-11-20T01:40:53;17.52;;;6.93;;
65753;SDS011;52488;47.502;18.940;2022-11-20T01:41:56;15.80;;;6.93;;
65753;SDS011;52488;47.502;18.940;2022-11-20T01:43:18;16.77;;;7.50;;
65753;SDS011;52488;47.502;18.940;2022-11-20T01:44:46;20.25;;;7.97;;
65753;SDS011;52488;47.502;18.940;2022-11-20T01:47:00;19.40;;;8.43;;
65753;SDS011;52488;47.502;18.940;2022-11-20T01:48:07;15.02;;;6.43;;
65753;SDS011;52488;47.502;18.940;2022-11-20T01:49:17;14.60;;;7.43;;
65753;SDS011;52488;47.502;18.940;2022-11-20T01:50:27;17.83;;;8.20;;
65753;SDS011;52488;47.502;18.940;2022-11-20T01:51:39;20.40;;;8.73;;
65753;SDS011;52488;47.502;18.940;2022-11-20T01:52:50;19.90;;;7.97;;
65753;SDS011;52488;47.502;18.940;2022-11-20T01:54:12;23.58;;;9.07;;
65753;SDS011;52488;47.502;18.940;2022-11-20T01:55:23;23.70;;;9.07;;
65753;SDS011;52488;47.502;18.940;2022-11-20T01:56:31;22.52;;;9.52;;
65753;SDS011;52488;47.502;18.940;2022-11-20T01:57:38;22.60;;;8.90;;
65753;SDS011;52488;47.502;18.940;2022-11-20T01:58:46;26.33;;;11.30;;
65753;SDS011;52488;47.502;18.940;2022-11-20T01:59:54;24.65;;;11.25;;
65753;SDS011;52488;47.502;18.940;2022-11-20T02:01:02;24.60;;;10.27;;
65753;SDS011;52488;47.502;18.940;2022-11-20T02:02:06;22.95;;;10.30;;
65753;SDS011;52488;47.502;18.940;2022-11-20T02:03:10;26.20;;;10.82;;
65753;SDS011;52488;47.502;18.940;2022-11-20T02:04:16;21.80;;;10.35;;
65753;SDS011;52488;47.502;18.940;2022-11-20T02:05:29;24.95;;;9.88;;
65753;SDS011;52488;47.502;18.940;2022-11-20T02:06:40;25.55;;;10.00;;
65753;SDS011;52488;47.502;18.940;2022-11-20T02:07:48;25.98;;;10.63;;
65753;SDS011;52488;47.502;18.940;2022-11-20T02:08:51;25.35;;;10.48;;
65753;SDS011;52488;47.502;18.940;2022-11-20T02:09:54;28.85;;;11.25;;
65753;SDS011;52488;47.502;18.940;2022-11-20T02:11:00;24.65;;;11.02;;
65753;SDS011;52488;47.502;18.940;2022-11-20T02:12:03;30.70;;;12.18;;
65753;SDS011;52488;47.502;18.940;2022-11-20T02:13:06;26.75;;;11.75;;
65753;SDS011;52488;47.502;18.940;2022-11-20T02:14:28;25.75;;;11.15;;
65753;SDS011;52488;47.502;18.940;2022-11-20T02:15:32;29.05;;;12.07;;
65753;SDS011;52488;47.502;18.940;2022-11-20T02:16:45;29.83;;;11.68;;
65753;SDS011;52488;47.502;18.940;2022-11-20T02:17:49;25.83;;;11.12;;
65753;SDS011;52488;47.502;18.940;2022-11-20T02:18:53;27.05;;;12.30;;
65753;SDS011;52488;47.502;18.940;2022-11-20T02:19:57;26.33;;;12.18;;
65753;SDS011;52488;47.502;18.940;2022-11-20T02:21:35;27.62;;;12.50;;
65753;SDS011;52488;47.502;18.940;2022-11-20T02:22:53;26.40;;;10.20;;
65753;SDS011;52488;47.502;18.940;2022-11-20T02:24:11;27.95;;;10.73;;
65753;SDS011;52488;47.502;18.940;2022-11-20T02:25:20;23.70;;;10.35;;
65753;SDS011;52488;47.502;18.940;2022-11-20T02:26:24;26.52;;;10.80;;
65753;SDS011;52488;47.502;18.940;2022-11-20T02:27:28;25.65;;;11.27;;
65753;SDS011;52488;47.502;18.940;2022-11-20T02:28:31;28.10;;;11.35;;
65753;SDS011;52488;47.502;18.940;2022-11-20T02:31:10;31.20;;;11.98;;
65753;SDS011;52488;47.502;18.940;2022-11-20T02:32:20;27.70;;;10.80;;
65753;SDS011;52488;47.502;18.940;2022-11-20T02:33:27;26.17;;;10.88;;
65753;SDS011;52488;47.502;18.940;2022-11-20T02:34:30;28.95;;;11.73;;
65753;SDS011;52488;47.502;18.940;2022-11-20T02:36:36;27.80;;;10.88;;
65753;SDS011;52488;47.502;18.940;2022-11-20T02:37:42;25.48;;;9.75;;
65753;SDS011;52488;47.502;18.940;2022-11-20T02:38:47;25.80;;;10.60;;
65753;SDS011;52488;47.502;18.940;2022-11-20T02:39:51;25.17;;;10.18;;
65753;SDS011;52488;47.502;18.940;2022-11-20T02:40:54;28.12;;;11.18;;
65753;SDS011;52488;47.502;18.940;2022-11-20T02:41:57;29.33;;;11.93;;
65753;SDS011;52488;47.502;18.940;2022-11-20T02:42:59;28.60;;;11.55;;
65753;SDS011;52488;47.502;18.940;2022-11-20T02:44:02;32.17;;;12.20;;
65753;SDS011;52488;47.502;18.940;2022-11-20T02:45:07;26.02;;;11.00;;
65753;SDS011;52488;47.502;18.940;2022-11-20T02:46:10;30.80;;;11.68;;
65753;SDS011;52488;47.502;18.940;2022-11-20T02:47:13;29.60;;;11.48;;
65753;SDS011;52488;47.502;18.940;2022-11-20T02:48:16;30.05;;;11.52;;
65753;SDS011;52488;47.502;18.940;2022-11-20T02:49:22;26.05;;;10.50;;
65753;SDS011;52488;47.502;18.940;2022-11-20T02:50:25;27.45;;;11.12;;
65753;SDS011;52488;47.502;18.940;2022-11-20T02:51:28;29.60;;;11.43;;
65753;SDS011;52488;47.502;18.940;2022-11-20T02:52:30;26.62;;;11.20;;
65753;SDS011;52488;47.502;18.940;2022-11-20T02:53:33;26.48;;;10.98;;
65753;SDS011;52488;47.502;18.940;2022-11-20T02:54:36;30.50;;;11.45;;
65753;SDS011;52488;47.502;18.940;2022-11-20T02:55:39;27.35;;;10.82;;
65753;SDS011;52488;47.502;18.940;2022-11-20T02:56:42;25.12;;;10.77;;
65753;SDS011;52488;47.502;18.940;2022-11-20T02:57:45;29.80;;;11.70;;
65753;SDS011;52488;47.502;18.940;2022-11-20T02:58:48;29.98;;;12.07;;
65753;SDS011;52488;47.502;18.940;2022-11-20T02:59:50;27.52;;;11.10;;
65753;SDS011;52488;47.502;18.940;2022-11-20T03:00:53;30.23;;;11.35;;
65753;SDS011;52488;47.502;18.940;2022-11-20T03:01:56;26.15;;;10.80;;
65753;SDS011;52488;47.502;18.940;2022-11-20T03:02:59;27.50;;;10.95;;
65753;SDS011;52488;47.502;18.940;2022-11-20T03:04:01;32.72;;;13.07;;
65753;SDS011;52488;47.502;18.940;2022-11-20T03:05:04;27.77;;;11.95;;
65753;SDS011;52488;47.502;18.940;2022-11-20T03:06:07;28.62;;;12.32;;
65753;SDS011;52488;47.502;18.940;2022-11-20T03:07:10;28.55;;;11.88;;
65753;SDS011;52488;47.502;18.940;2022-11-20T03:08:13;27.70;;;12.05;;
65753;SDS011;52488;47.502;18.940;2022-11-20T03:09:16;26.80;;;11.35;;
65753;SDS011;52488;47.502;18.940;2022-11-20T03:10:19;32.72;;;12.60;;
65753;SDS011;52488;47.502;18.940;2022-11-20T03:11:22;29.10;;;12.20;;
65753;SDS011;52488;47.502;18.940;2022-11-20T03:12:24;22.98;;;10.30;;
65753;SDS011;52488;47.502;18.940;2022-11-20T03:13:27;31.00;;;12.23;;
65753;SDS011;52488;47.502;18.940;2022-11-20T03:14:29;31.23;;;12.27;;
65753;SDS011;52488;47.502;18.940;2022-11-20T03:15:32;28.05;;;11.43;;
65753;SDS011;52488;47.502;18.940;2022-11-20T03:16:35;26.50;;;10.43;;
65753;SDS011;52488;47.502;18.940;2022-11-20T03:17:37;29.60;;;11.25;;
65753;SDS011;52488;47.502;18.940;2022-11-20T03:18:40;27.83;;;11.48;;
65753;SDS011;52488;47.502;18.940;2022-11-20T03:19:44;30.42;;;12.18;;
65753;SDS011;52488;47.502;18.940;2022-11-20T03:20:47;27.67;;;11.52;;
65753;SDS011;52488;47.502;18.940;2022-11-20T03:21:49;28.70;;;12.20;;
65753;SDS011;52488;47.502;18.940;2022-11-20T03:22:53;29.02;;;12.23;;
65753;SDS011;52488;47.502;18.940;2022-11-20T03:23:56;27.92;;;11.20;;
65753;SDS011;52488;47.502;18.940;2022-11-20T03:24:58;28.25;;;11.57;;
65753;SDS011;52488;47.502;18.940;2022-11-20T03:26:14;28.58;;;11.48;;
65753;SDS011;52488;47.502;18.940;2022-11-20T03:27:19;28.58;;;11.12;;
65753;SDS011;52488;47.502;18.940;2022-11-20T03:28:26;24.77;;;11.32;;
65753;SDS011;52488;47.502;18.940;2022-11-20T03:29:28;29.80;;;11.80;;
65753;SDS011;52488;47.502;18.940;2022-11-20T03:30:34;23.15;;;10.68;;
65753;SDS011;52488;47.502;18.940;2022-11-20T03:31:38;30.95;;;12.60;;
65753;SDS011;52488;47.502;18.940;2022-11-20T03:32:45;27.15;;;10.80;;
65753;SDS011;52488;47.502;18.940;2022-11-20T03:33:48;27.48;;;11.27;;
65753;SDS011;52488;47.502;18.940;2022-11-20T03:34:50;26.02;;;11.73;;
65753;SDS011;52488;47.502;18.940;2022-11-20T03:35:53;27.40;;;10.45;;
65753;SDS011;52488;47.502;18.940;2022-11-20T03:36:56;27.05;;;10.85;;
65753;SDS011;52488;47.502;18.940;2022-11-20T03:37:58;25.02;;;10.80;;
65753;SDS011;52488;47.502;18.940;2022-11-20T03:39:01;24.52;;;10.27;;
65753;SDS011;52488;47.502;18.940;2022-11-20T03:40:04;25.65;;;11.02;;
65753;SDS011;52488;47.502;18.940;2022-11-20T03:41:15;23.55;;;10.25;;
65753;SDS011;52488;47.502;18.940;2022-11-20T03:42:20;26.37;;;10.38;;
65753;SDS011;52488;47.502;18.940;2022-11-20T03:43:41;23.25;;;9.55;;
65753;SDS011;52488;47.502;18.940;2022-11-20T03:44:44;24.63;;;10.60;;
65753;SDS011;52488;47.502;18.940;2022-11-20T03:45:46;27.65;;;11.48;;
65753;SDS011;52488;47.502;18.940;2022-11-20T03:46:49;27.42;;;11.30;;
65753;SDS011;52488;47.502;18.940;2022-11-20T03:47:52;27.15;;;10.80;;
65753;SDS011;52488;47.502;18.940;2022-11-20T03:48:55;25.30;;;10.68;;
65753;SDS011;52488;47.502;18.940;2022-11-20T03:49:58;26.92;;;10.88;;
65753;SDS011;52488;47.502;18.940;2022-11-20T03:51:07;23.52;;;10.85;;
65753;SDS011;52488;47.502;18.940;2022-11-20T03:52:16;22.87;;;9.68;;
65753;SDS011;52488;47.502;18.940;2022-11-20T03:53:19;25.67;;;10.50;;
65753;SDS011;52488;47.502;18.940;2022-11-20T03:54:22;25.40;;;10.52;;
65753;SDS011;52488;47.502;18.940;2022-11-20T03:55:25;24.33;;;10.70;;
65753;SDS011;52488;47.502;18.940;2022-11-20T03:56:30;25.35;;;10.85;;
65753;SDS011;52488;47.502;18.940;2022-11-20T03:57:34;25.60;;;10.30;;
65753;SDS011;52488;47.502;18.940;2022-11-20T03:58:39;26.33;;;10.98;;
65753;SDS011;52488;47.502;18.940;2022-11-20T03:59:43;28.70;;;11.95;;
65753;SDS011;52488;47.502;18.940;2022-11-20T04:00:45;25.33;;;11.75;;
65753;SDS011;52488;47.502;18.940;2022-11-20T04:01:48;23.12;;;10.50;;
65753;SDS011;52488;47.502;18.940;2022-11-20T04:02:51;28.40;;;10.85;;
65753;SDS011;52488;47.502;18.940;2022-11-20T04:03:54;25.98;;;10.40;;
65753;SDS011;52488;47.502;18.940;2022-11-20T04:04:58;24.17;;;10.48;;
65753;SDS011;52488;47.502;18.940;2022-11-20T04:06:01;24.40;;;10.32;;
65753;SDS011;52488;47.502;18.940;2022-11-20T04:07:06;29.00;;;11.70;;
65753;SDS011;52488;47.502;18.940;2022-11-20T04:08:08;29.77;;;12.02;;
65753;SDS011;52488;47.502;18.940;2022-11-20T04:09:11;21.85;;;9.68;;
65753;SDS011;52488;47.502;18.940;2022-11-20T04:10:16;24.85;;;10.48;;
65753;SDS011;52488;47.502;18.940;2022-11-20T04:11:23;28.35;;;11.02;;
65753;SDS011;52488;47.502;18.940;2022-11-20T04:12:31;25.27;;;10.43;;
65753;SDS011;52488;47.502;18.940;2022-11-20T04:13:34;26.23;;;10.88;;
65753;SDS011;52488;47.502;18.940;2022-11-20T04:14:37;22.58;;;9.63;;
65753;SDS011;52488;47.502;18.940;2022-11-20T04:15:40;25.27;;;10.15;;
65753;SDS011;52488;47.502;18.940;2022-11-20T04:16:43;23.30;;;10.10;;
65753;SDS011;52488;47.502;18.940;2022-11-20T04:17:46;26.02;;;10.27;;
65753;SDS011;52488;47.502;18.940;2022-11-20T04:18:56;25.33;;;11.23;;
65753;SDS011;52488;47.502;18.940;2022-11-20T04:20:00;26.73;;;11.15;;
65753;SDS011;52488;47.502;18.940;2022-11-20T04:21:04;25.25;;;9.90;;
65753;SDS011;52488;47.502;18.940;2022-11-20T04:22:07;24.25;;;10.98;;
65753;SDS011;52488;47.502;18.940;2022-11-20T04:23:10;25.52;;;10.88;;
65753;SDS011;52488;47.502;18.940;2022-11-20T04:24:13;21.35;;;9.88;;
65753;SDS011;52488;47.502;18.940;2022-11-20T04:25:15;26.48;;;10.85;;
65753;SDS011;52488;47.502;18.940;2022-11-20T04:26:19;23.50;;;10.35;;
65753;SDS011;52488;47.502;18.940;2022-11-20T04:27:23;23.35;;;9.68;;
65753;SDS011;52488;47.502;18.940;2022-11-20T04:28:30;23.75;;;10.43;;
65753;SDS011;52488;47.502;18.940;2022-11-20T04:29:32;22.58;;;10.30;;
65753;SDS011;52488;47.502;18.940;2022-11-20T04:30:35;21.60;;;10.20;;
65753;SDS011;52488;47.502;18.940;2022-11-20T04:31:38;21.98;;;8.82;;
65753;SDS011;52488;47.502;18.940;2022-11-20T04:32:41;24.48;;;10.20;;
65753;SDS011;52488;47.502;18.940;2022-11-20T04:33:43;26.10;;;9.35;;
65753;SDS011;52488;47.502;18.940;2022-11-20T04:34:47;21.98;;;10.02;;
65753;SDS011;52488;47.502;18.940;2022-11-20T04:35:49;23.05;;;9.73;;
65753;SDS011;52488;47.502;18.940;2022-11-20T04:36:56;21.87;;;9.73;;
65753;SDS011;52488;47.502;18.940;2022-11-20T04:37:59;21.67;;;9.23;;
65753;SDS011;52488;47.502;18.940;2022-11-20T04:39:03;23.95;;;10.18;;
65753;SDS011;52488;47.502;18.940;2022-11-20T04:40:07;25.23;;;10.80;;
65753;SDS011;52488;47.502;18.940;2022-11-20T04:41:17;23.35;;;10.48;;
65753;SDS011;52488;47.502;18.940;2022-11-20T04:42:21;24.33;;;10.18;;
65753;SDS011;52488;47.502;18.940;2022-11-20T04:44:36;26.00;;;10.48;;
65753;SDS011;52488;47.502;18.940;2022-11-20T04:45:38;20.92;;;9.57;;
65753;SDS011;52488;47.502;18.940;2022-11-20T04:46:44;22.65;;;10.40;;
65753;SDS011;52488;47.502;18.940;2022-11-20T04:47:47;26.27;;;10.57;;
65753;SDS011;52488;47.502;18.940;2022-11-20T04:48:50;25.50;;;11.95;;
65753;SDS011;52488;47.502;18.940;2022-11-20T04:49:53;23.23;;;9.93;;
65753;SDS011;52488;47.502;18.940;2022-11-20T04:50:56;23.27;;;10.68;;
65753;SDS011;52488;47.502;18.940;2022-11-20T04:52:01;22.48;;;9.90;;
65753;SDS011;52488;47.502;18.940;2022-11-20T04:53:03;22.25;;;10.23;;
65753;SDS011;52488;47.502;18.940;2022-11-20T04:54:06;23.98;;;10.57;;
65753;SDS011;52488;47.502;18.940;2022-11-20T04:55:10;26.25;;;10.90;;
65753;SDS011;52488;47.502;18.940;2022-11-20T04:56:13;22.15;;;9.82;;
65753;SDS011;52488;47.502;18.940;2022-11-20T04:57:19;21.85;;;9.15;;
65753;SDS011;52488;47.502;18.940;2022-11-20T04:58:22;25.27;;;10.30;;
65753;SDS011;52488;47.502;18.940;2022-11-20T04:59:26;23.00;;;10.07;;
65753;SDS011;52488;47.502;18.940;2022-11-20T05:00:29;22.20;;;10.07;;
65753;SDS011;52488;47.502;18.940;2022-11-20T05:01:31;27.15;;;10.38;;
65753;SDS011;52488;47.502;18.940;2022-11-20T05:02:34;27.60;;;11.27;;
65753;SDS011;52488;47.502;18.940;2022-11-20T05:03:37;24.58;;;10.45;;
65753;SDS011;52488;47.502;18.940;2022-11-20T05:04:43;26.02;;;11.15;;
65753;SDS011;52488;47.502;18.940;2022-11-20T05:05:46;22.60;;;10.45;;
65753;SDS011;52488;47.502;18.940;2022-11-20T05:06:49;23.83;;;9.88;;
65753;SDS011;52488;47.502;18.940;2022-11-20T05:07:56;26.48;;;10.63;;
65753;SDS011;52488;47.502;18.940;2022-11-20T05:08:59;25.60;;;10.55;;
65753;SDS011;52488;47.502;18.940;2022-11-20T05:10:03;23.83;;;11.48;;
65753;SDS011;52488;47.502;18.940;2022-11-20T05:11:10;24.37;;;10.65;;
65753;SDS011;52488;47.502;18.940;2022-11-20T05:12:14;22.70;;;10.10;;
65753;SDS011;52488;47.502;18.940;2022-11-20T05:13:17;23.38;;;10.07;;
65753;SDS011;52488;47.502;18.940;2022-11-20T05:14:19;24.15;;;10.30;;
65753;SDS011;52488;47.502;18.940;2022-11-20T05:15:22;27.02;;;10.95;;
65753;SDS011;52488;47.502;18.940;2022-11-20T05:16:25;25.27;;;10.15;;
65753;SDS011;52488;47.502;18.940;2022-11-20T05:17:30;23.80;;;10.40;;
65753;SDS011;52488;47.502;18.940;2022-11-20T05:18:33;28.05;;;11.30;;
65753;SDS011;52488;47.502;18.940;2022-11-20T05:19:37;29.55;;;11.32;;
65753;SDS011;52488;47.502;18.940;2022-11-20T05:20:39;26.75;;;9.95;;
65753;SDS011;52488;47.502;18.940;2022-11-20T05:21:42;23.70;;;10.38;;
65753;SDS011;52488;47.502;18.940;2022-11-20T05:22:44;23.00;;;9.68;;
65753;SDS011;52488;47.502;18.940;2022-11-20T05:23:48;26.30;;;10.68;;
65753;SDS011;52488;47.502;18.940;2022-11-20T05:24:51;23.75;;;10.00;;
65753;SDS011;52488;47.502;18.940;2022-11-20T05:25:54;23.77;;;10.40;;
65753;SDS011;52488;47.502;18.940;2022-11-20T05:27:00;23.73;;;10.02;;
65753;SDS011;52488;47.502;18.940;2022-11-20T05:28:03;24.70;;;10.85;;
65753;SDS011;52488;47.502;18.940;2022-11-20T05:29:06;23.60;;;10.73;;
65753;SDS011;52488;47.502;18.940;2022-11-20T05:30:09;26.00;;;10.80;;
65753;SDS011;52488;47.502;18.940;2022-11-20T05:31:13;21.58;;;9.73;;
65753;SDS011;52488;47.502;18.940;2022-11-20T05:32:20;24.80;;;10.90;;
65753;SDS011;52488;47.502;18.940;2022-11-20T05:33:23;26.05;;;10.05;;
65753;SDS011;52488;47.502;18.940;2022-11-20T05:34:26;25.20;;;10.77;;
65753;SDS011;52488;47.502;18.940;2022-11-20T05:35:29;28.98;;;11.35;;
65753;SDS011;52488;47.502;18.940;2022-11-20T05:36:32;24.77;;;10.93;;
65753;SDS011;52488;47.502;18.940;2022-11-20T05:37:35;24.50;;;11.48;;
65753;SDS011;52488;47.502;18.940;2022-11-20T05:38:37;26.35;;;10.32;;
65753;SDS011;52488;47.502;18.940;2022-11-20T05:39:40;26.75;;;11.30;;
65753;SDS011;52488;47.502;18.940;2022-11-20T05:40:43;28.40;;;11.40;;
65753;SDS011;52488;47.502;18.940;2022-11-20T05:41:45;23.52;;;10.75;;
65753;SDS011;52488;47.502;18.940;2022-11-20T05:42:48;20.92;;;10.18;;
65753;SDS011;52488;47.502;18.940;2022-11-20T05:43:51;24.45;;;10.43;;
65753;SDS011;52488;47.502;18.940;2022-11-20T05:44:54;24.33;;;10.05;;
65753;SDS011;52488;47.502;18.940;2022-11-20T05:45:57;23.83;;;9.90;;
65753;SDS011;52488;47.502;18.940;2022-11-20T05:47:00;23.33;;;10.50;;
65753;SDS011;52488;47.502;18.940;2022-11-20T05:48:03;22.95;;;10.00;;
65753;SDS011;52488;47.502;18.940;2022-11-20T05:49:06;22.52;;;10.10;;
65753;SDS011;52488;47.502;18.940;2022-11-20T05:50:09;26.60;;;10.02;;
65753;SDS011;52488;47.502;18.940;2022-11-20T05:51:13;22.17;;;9.90;;
65753;SDS011;52488;47.502;18.940;2022-11-20T05:52:17;23.62;;;10.18;;
65753;SDS011;52488;47.502;18.940;2022-11-20T05:53:20;22.80;;;10.90;;
65753;SDS011;52488;47.502;18.940;2022-11-20T05:54:23;23.67;;;10.20;;
65753;SDS011;52488;47.502;18.940;2022-11-20T05:55:26;23.10;;;9.23;;
65753;SDS011;52488;47.502;18.940;2022-11-20T05:56:29;22.00;;;10.00;;
65753;SDS011;52488;47.502;18.940;2022-11-20T05:57:32;20.65;;;9.43;;
65753;SDS011;52488;47.502;18.940;2022-11-20T05:58:35;26.37;;;11.25;;
65753;SDS011;52488;47.502;18.940;2022-11-20T05:59:38;20.65;;;9.32;;
65753;SDS011;52488;47.502;18.940;2022-11-20T06:00:40;21.70;;;9.55;;
65753;SDS011;52488;47.502;18.940;2022-11-20T06:01:43;24.20;;;10.18;;
65753;SDS011;52488;47.502;18.940;2022-11-20T06:02:46;23.48;;;10.30;;
65753;SDS011;52488;47.502;18.940;2022-11-20T06:03:49;27.80;;;11.02;;
65753;SDS011;52488;47.502;18.940;2022-11-20T06:04:53;24.40;;;10.90;;
65753;SDS011;52488;47.502;18.940;2022-11-20T06:05:55;25.83;;;11.40;;
65753;SDS011;52488;47.502;18.940;2022-11-20T06:06:58;26.15;;;10.48;;
65753;SDS011;52488;47.502;18.940;2022-11-20T06:08:01;23.67;;;9.93;;
65753;SDS011;52488;47.502;18.940;2022-11-20T06:09:04;21.52;;;9.95;;
65753;SDS011;52488;47.502;18.940;2022-11-20T06:10:06;22.17;;;10.13;;
65753;SDS011;52488;47.502;18.940;2022-11-20T06:11:10;22.85;;;10.07;;
65753;SDS011;52488;47.502;18.940;2022-11-20T06:12:14;20.92;;;9.43;;
65753;SDS011;52488;47.502;18.940;2022-11-20T06:13:17;20.83;;;9.35;;
65753;SDS011;52488;47.502;18.940;2022-11-20T06:14:20;23.17;;;9.95;;
65753;SDS011;52488;47.502;18.940;2022-11-20T06:15:22;23.95;;;10.65;;
65753;SDS011;52488;47.502;18.940;2022-11-20T06:16:25;22.52;;;10.23;;
65753;SDS011;52488;47.502;18.940;2022-11-20T06:17:28;23.08;;;10.27;;
65753;SDS011;52488;47.502;18.940;2022-11-20T06:18:31;20.52;;;9.80;;
65753;SDS011;52488;47.502;18.940;2022-11-20T06:19:34;22.60;;;9.77;;